Time;durP1;ratioP1;P1;durP2;ratioP2;P2;SDS_P1;SDS_P2;PMS_P1;PMS_P2;Temp;Humidity;BMP_temperature;BMP_pressure;BME280_temperature;BME280_humidity;BME280_pressure;Samples;Min_cycle;Max_cycle;Signal;HPM_P1;HPM_P2
2024/01/09 00:02:12;;;;;;;14.68;8.35;;;;;;;;;;4977006;28;20501;-65
2024/01/09 00:04:39;;;;;;;12.55;7.53;;;;;;;;;;4976852;28;20416;-64
2024/01/09 00:07:07;;;;;;;14.48;7.85;;;;;;;;;;4975343;28;20688;-64
2024/01/09 00:09:34;;;;;;;15.82;8.20;;;;;;;;;;4976666;28;20054;-64
2024/01/09 00:12:02;;;;;;;17.10;8.23;;;;;;;;;;4976635;28;20097;-64
2024/01/09 00:14:30;;;;;;;13.70;6.60;;;;;;;;;;4976530;28;20039;-64
2024/01/09 00:16:57;;;;;;;21.08;10.10;;;;;;;;;;4984064;28;20069;-65
2024/01/09 00:19:25;;;;;;;18.45;7.65;;;;;;;;;;4995994;28;20451;-64
2024/01/09 00:21:53;;;;;;;17.73;9.38;;;;;;;;;;4995783;28;20046;-64
2024/01/09 00:24:20;;;;;;;11.82;7.25;;;;;;;;;;4995553;28;20100;-64
2024/01/09 00:26:48;;;;;;;13.40;6.03;;;;;;;;;;4978342;28;20035;-64
2024/01/09 00:29:15;;;;;;;13.52;7.10;;;;;;;;;;4995492;28;20049;-64
2024/01/09 00:31:44;;;;;;;18.13;9.15;;;;;;;;;;4995763;28;20584;-65
2024/01/09 00:34:11;;;;;;;24.92;10.05;;;;;;;;;;4995653;28;20461;-65
2024/01/09 00:36:43;;;;;;;22.27;8.82;;;;;;;;;;4995637;28;20053;-64
2024/01/09 00:39:14;;;;;;;16.08;8.13;;;;;;;;;;4995559;28;20049;-64
2024/01/09 00:41:41;;;;;;;15.00;6.72;;;;;;;;;;4995612;28;20077;-64
2024/01/09 00:44:09;;;;;;;15.68;8.15;;;;;;;;;;4995509;28;20630;-65
2024/01/09 00:46:36;;;;;;;17.98;10.35;;;;;;;;;;4995566;28;20132;-64
2024/01/09 00:49:04;;;;;;;10.68;5.93;;;;;;;;;;4995428;28;20039;-64
2024/01/09 00:51:32;;;;;;;14.75;7.05;;;;;;;;;;4978150;28;20081;-64
2024/01/09 00:53:59;;;;;;;13.68;7.32;;;;;;;;;;4995336;28;20441;-64
2024/01/09 00:56:27;;;;;;;13.23;6.70;;;;;;;;;;4995251;28;20073;-64
2024/01/09 00:58:55;;;;;;;15.65;7.30;;;;;;;;;;4995215;28;20047;-64
2024/01/09 01:01:23;;;;;;;16.98;7.90;;;;;;;;;;4995174;28;20042;-64
2024/01/09 01:03:50;;;;;;;11.35;6.10;;;;;;;;;;4995211;28;20039;-64
2024/01/09 01:06:18;;;;;;;21.10;7.78;;;;;;;;;;4995072;28;20125;-64
2024/01/09 01:08:46;;;;;;;14.80;7.50;;;;;;;;;;4994991;28;20034;-64
2024/01/09 01:11:13;;;;;;;17.75;7.93;;;;;;;;;;4995017;28;20045;-64
2024/01/09 01:13:41;;;;;;;12.65;7.10;;;;;;;;;;4994910;28;20046;-64
2024/01/09 01:16:08;;;;;;;13.90;6.70;;;;;;;;;;4994439;28;20129;-65
2024/01/09 01:18:36;;;;;;;15.05;7.93;;;;;;;;;;4994933;28;20042;-65
2024/01/09 01:21:04;;;;;;;11.93;7.28;;;;;;;;;;4994821;28;20046;-65
2024/01/09 01:23:31;;;;;;;13.02;7.40;;;;;;;;;;4994403;28;20113;-65
2024/01/09 01:25:59;;;;;;;13.43;7.43;;;;;;;;;;4994276;28;20057;-64
2024/01/09 01:28:26;;;;;;;11.60;6.03;;;;;;;;;;4961042;28;20113;-64
2024/01/09 01:30:54;;;;;;;10.60;5.57;;;;;;;;;;4994503;28;20385;-64
2024/01/09 01:33:22;;;;;;;8.13;4.70;;;;;;;;;;4994714;28;20476;-65
2024/01/09 01:35:49;;;;;;;11.73;5.38;;;;;;;;;;4994331;28;20060;-64
2024/01/09 01:38:18;;;;;;;13.15;6.35;;;;;;;;;;4994575;28;20113;-64
2024/01/09 01:40:45;;;;;;;13.63;6.72;;;;;;;;;;4976561;28;20046;-64
2024/01/09 01:43:13;;;;;;;13.55;6.90;;;;;;;;;;4994396;28;20440;-64
2024/01/09 01:45:41;;;;;;;16.17;6.97;;;;;;;;;;4994334;28;20511;-64
2024/01/09 01:48:09;;;;;;;11.40;5.85;;;;;;;;;;4994206;28;20137;-64
2024/01/09 01:50:37;;;;;;;9.43;5.82;;;;;;;;;;4994296;28;20060;-65
2024/01/09 01:53:06;;;;;;;9.05;5.43;;;;;;;;;;4994260;28;20070;-64
2024/01/09 01:55:34;;;;;;;15.45;7.00;;;;;;;;;;4994081;28;20039;-64
2024/01/09 01:58:01;;;;;;;11.85;7.53;;;;;;;;;;4994393;28;20042;-65
2024/01/09 02:00:29;;;;;;;10.32;6.00;;;;;;;;;;4994034;28;20049;-64
2024/01/09 02:02:57;;;;;;;13.35;7.05;;;;;;;;;;4994003;28;20116;-64
2024/01/09 02:05:25;;;;;;;11.40;6.47;;;;;;;;;;4994003;28;20045;-65
2024/01/09 02:07:54;;;;;;;15.43;7.60;;;;;;;;;;4994011;28;20049;-64
2024/01/09 02:10:23;;;;;;;7.53;4.50;;;;;;;;;;4993983;28;20038;-64
2024/01/09 02:12:50;;;;;;;9.20;5.13;;;;;;;;;;4993894;28;20129;-64
2024/01/09 02:15:18;;;;;;;10.75;5.47;;;;;;;;;;4993647;28;20061;-65
2024/01/09 02:17:46;;;;;;;13.23;7.47;;;;;;;;;;4993450;28;20527;-64
2024/01/09 02:20:13;;;;;;;13.07;6.45;;;;;;;;;;4993802;28;20121;-65
2024/01/09 02:22:41;;;;;;;10.88;5.05;;;;;;;;;;4993396;28;20488;-64
2024/01/09 02:25:09;;;;;;;14.30;6.65;;;;;;;;;;4993418;28;20685;-64
2024/01/09 02:27:57;;;;;;;9.27;5.10;;;;;;;;;;4993654;28;20424;-64
2024/01/09 02:30:26;;;;;;;10.10;5.65;;;;;;;;;;4993710;28;20085;-64
2024/01/09 02:32:54;;;;;;;10.45;5.32;;;;;;;;;;4992843;28;20038;-64
2024/01/09 02:35:22;;;;;;;11.02;5.43;;;;;;;;;;4992961;28;20122;-64
2024/01/09 02:37:49;;;;;;;9.88;4.53;;;;;;;;;;4993433;28;20038;-64
2024/01/09 02:40:17;;;;;;;7.28;4.60;;;;;;;;;;4993534;28;20046;-64
2024/01/09 02:42:44;;;;;;;10.95;5.40;;;;;;;;;;4993429;28;20046;-64
2024/01/09 02:45:13;;;;;;;11.43;6.22;;;;;;;;;;4993363;28;20046;-64
2024/01/09 02:47:41;;;;;;;9.30;4.03;;;;;;;;;;4993539;28;20046;-64
2024/01/09 02:50:09;;;;;;;11.23;6.18;;;;;;;;;;4993111;28;20133;-65
2024/01/09 02:52:36;;;;;;;10.25;5.45;;;;;;;;;;4992577;28;20050;-64
2024/01/09 02:55:04;;;;;;;10.38;4.82;;;;;;;;;;4993314;28;20075;-64
2024/01/09 02:57:31;;;;;;;8.38;5.13;;;;;;;;;;4993279;28;20117;-64
2024/01/09 02:59:59;;;;;;;12.43;6.32;;;;;;;;;;4993167;28;20034;-64
2024/01/09 03:02:27;;;;;;;10.30;5.63;;;;;;;;;;4976259;28;20046;-64
2024/01/09 03:04:54;;;;;;;8.35;4.30;;;;;;;;;;4993240;28;20043;-64
2024/01/09 03:07:22;;;;;;;8.80;5.30;;;;;;;;;;4975688;28;20464;-64
2024/01/09 03:09:50;;;;;;;12.07;5.93;;;;;;;;;;4993130;28;20042;-65
2024/01/09 03:12:17;;;;;;;11.00;4.32;;;;;;;;;;4993028;28;20046;-64
2024/01/09 03:14:45;;;;;;;14.10;4.85;;;;;;;;;;4993211;28;20404;-64
2024/01/09 03:17:13;;;;;;;11.00;5.75;;;;;;;;;;4992807;28;20055;-64
2024/01/09 03:19:42;;;;;;;8.10;4.50;;;;;;;;;;4992995;28;20093;-64
2024/01/09 03:22:10;;;;;;;11.77;5.97;;;;;;;;;;4992993;28;20046;-64
2024/01/09 03:24:37;;;;;;;10.57;5.25;;;;;;;;;;4993004;28;20404;-64
2024/01/09 03:27:05;;;;;;;12.18;6.53;;;;;;;;;;4975757;28;20409;-64
2024/01/09 03:29:34;;;;;;;12.02;5.95;;;;;;;;;;4992881;28;20112;-64
2024/01/09 03:32:01;;;;;;;9.63;5.47;;;;;;;;;;4993184;28;20409;-65
2024/01/09 03:34:29;;;;;;;12.15;5.95;;;;;;;;;;4992946;28;20038;-64
2024/01/09 03:36:56;;;;;;;6.25;3.65;;;;;;;;;;4993072;28;20097;-64
2024/01/09 03:39:24;;;;;;;9.98;5.70;;;;;;;;;;4992757;28;20046;-64
2024/01/09 03:41:52;;;;;;;11.65;5.57;;;;;;;;;;4992885;28;20058;-64
2024/01/09 03:44:19;;;;;;;9.30;4.22;;;;;;;;;;4992844;28;20039;-64
2024/01/09 03:46:47;;;;;;;8.57;4.18;;;;;;;;;;4993065;28;20120;-64
2024/01/09 03:49:15;;;;;;;9.13;5.00;;;;;;;;;;4992832;28;20448;-64
2024/01/09 03:51:42;;;;;;;12.93;5.20;;;;;;;;;;4992889;28;20127;-65
2024/01/09 03:54:11;;;;;;;13.75;6.10;;;;;;;;;;4992877;28;20481;-64
2024/01/09 03:56:39;;;;;;;6.70;3.90;;;;;;;;;;4992539;28;20039;-64
2024/01/09 03:59:06;;;;;;;8.80;5.07;;;;;;;;;;4975503;28;20077;-64
2024/01/09 04:01:34;;;;;;;12.60;4.80;;;;;;;;;;4992773;28;20038;-64
2024/01/09 04:04:01;;;;;;;11.30;5.38;;;;;;;;;;5010931;28;20050;-64
2024/01/09 04:06:29;;;;;;;12.30;6.70;;;;;;;;;;4996240;28;20053;-64
2024/01/09 04:08:57;;;;;;;9.35;5.28;;;;;;;;;;4978696;28;20043;-64
2024/01/09 04:11:24;;;;;;;9.48;5.03;;;;;;;;;;4996134;28;20042;-64
2024/01/09 04:13:52;;;;;;;7.07;3.85;;;;;;;;;;4996119;28;20117;-64
2024/01/09 04:16:20;;;;;;;12.30;4.90;;;;;;;;;;4995906;28;20074;-64
2024/01/09 04:18:47;;;;;;;9.95;4.93;;;;;;;;;;4995988;28;20133;-65
2024/01/09 04:21:15;;;;;;;11.00;5.70;;;;;;;;;;4995893;28;20038;-65
2024/01/09 04:23:42;;;;;;;11.93;5.97;;;;;;;;;;4995839;28;20440;-64
2024/01/09 04:26:10;;;;;;;8.45;5.10;;;;;;;;;;4995847;28;20097;-65
2024/01/09 04:28:38;;;;;;;11.02;5.25;;;;;;;;;;4995822;28;20104;-65
2024/01/09 04:31:05;;;;;;;11.18;5.03;;;;;;;;;;4995755;28;20073;-65
2024/01/09 04:33:33;;;;;;;13.45;5.57;;;;;;;;;;4978181;28;20053;-64
2024/01/09 04:36:00;;;;;;;8.25;5.05;;;;;;;;;;4995555;28;20050;-64
2024/01/09 04:38:28;;;;;;;7.03;4.15;;;;;;;;;;4995272;28;20050;-66
2024/01/09 04:40:56;;;;;;;8.52;4.85;;;;;;;;;;5012735;28;20432;-65
2024/01/09 04:43:23;;;;;;;5.82;3.58;;;;;;;;;;5015114;28;20076;-65
2024/01/09 04:45:50;;;;;;;9.23;4.43;;;;;;;;;;5015102;28;20049;-65
2024/01/09 04:48:18;;;;;;;9.20;5.43;;;;;;;;;;5015022;28;20100;-64
2024/01/09 04:50:46;;;;;;;8.50;4.75;;;;;;;;;;5005338;28;20485;-65
2024/01/09 04:53:14;;;;;;;5.47;3.47;;;;;;;;;;5014783;28;20499;-64
2024/01/09 04:55:41;;;;;;;11.82;6.65;;;;;;;;;;5014816;28;20073;-65
2024/01/09 04:58:09;;;;;;;11.95;5.95;;;;;;;;;;5014616;28;20498;-65
2024/01/09 05:00:37;;;;;;;5.82;3.42;;;;;;;;;;5014704;28;20407;-65
2024/01/09 05:03:05;;;;;;;9.48;5.45;;;;;;;;;;5014484;28;20053;-65
2024/01/09 05:05:32;;;;;;;9.65;3.83;;;;;;;;;;5014595;28;20462;-65
2024/01/09 05:08:00;;;;;;;9.60;5.35;;;;;;;;;;5014476;28;20097;-65
2024/01/09 05:10:30;;;;;;;10.27;5.20;;;;;;;;;;5014546;28;20088;-65
2024/01/09 05:12:58;;;;;;;9.98;5.32;;;;;;;;;;5003327;28;20120;-65
2024/01/09 05:15:26;;;;;;;16.75;5.80;;;;;;;;;;4993869;28;20779;-65
2024/01/09 05:17:53;;;;;;;10.85;5.43;;;;;;;;;;4977340;28;20050;-65
2024/01/09 05:20:21;;;;;;;13.73;5.70;;;;;;;;;;4994761;28;20436;-66
2024/01/09 05:22:49;;;;;;;8.73;4.57;;;;;;;;;;4977191;28;20046;-65
2024/01/09 05:25:16;;;;;;;11.45;5.95;;;;;;;;;;4995229;28;20046;-65
2024/01/09 05:27:44;;;;;;;6.80;3.97;;;;;;;;;;4994543;28;20050;-65
2024/01/09 05:30:12;;;;;;;12.10;6.30;;;;;;;;;;4994539;28;20038;-65
2024/01/09 05:32:39;;;;;;;9.73;5.28;;;;;;;;;;4994447;28;20054;-65
2024/01/09 05:35:08;;;;;;;9.27;4.88;;;;;;;;;;4994640;28;20043;-65
2024/01/09 05:37:36;;;;;;;11.68;5.10;;;;;;;;;;4994405;28;20048;-65
2024/01/09 05:40:04;;;;;;;9.25;4.70;;;;;;;;;;4994341;28;20038;-65
2024/01/09 05:42:31;;;;;;;5.22;3.63;;;;;;;;;;4994462;28;20046;-65
2024/01/09 05:44:59;;;;;;;9.57;5.40;;;;;;;;;;4994450;28;20042;-65
2024/01/09 05:47:26;;;;;;;11.77;5.47;;;;;;;;;;4996482;28;20039;-66
2024/01/09 05:49:54;;;;;;;13.02;5.30;;;;;;;;;;4994195;28;20105;-65
2024/01/09 05:52:22;;;;;;;8.23;4.40;;;;;;;;;;4994355;28;20547;-65
2024/01/09 05:54:49;;;;;;;7.22;4.80;;;;;;;;;;4994283;28;20042;-65
2024/01/09 05:57:17;;;;;;;9.77;5.40;;;;;;;;;;4994445;28;20112;-65
2024/01/09 05:59:44;;;;;;;9.05;5.25;;;;;;;;;;4994193;28;20043;-65
2024/01/09 06:02:12;;;;;;;11.57;6.03;;;;;;;;;;5009045;28;20460;-66
2024/01/09 06:04:39;;;;;;;8.50;3.90;;;;;;;;;;4994071;28;20093;-65
2024/01/09 06:07:07;;;;;;;9.55;5.05;;;;;;;;;;4994022;28;20484;-65
2024/01/09 06:09:34;;;;;;;9.40;4.95;;;;;;;;;;4994048;28;20084;-65
2024/01/09 06:12:02;;;;;;;9.38;5.00;;;;;;;;;;4994165;28;20050;-65
2024/01/09 06:14:30;;;;;;;9.25;4.95;;;;;;;;;;4994227;28;20049;-65
2024/01/09 06:16:57;;;;;;;7.10;4.20;;;;;;;;;;4993801;28;20054;-65
2024/01/09 06:19:25;;;;;;;8.57;4.97;;;;;;;;;;4994461;28;20042;-65
2024/01/09 06:21:52;;;;;;;8.60;4.28;;;;;;;;;;4994349;28;20447;-65
2024/01/09 06:24:21;;;;;;;9.35;5.53;;;;;;;;;;4993900;28;20408;-65
2024/01/09 06:26:48;;;;;;;8.30;4.20;;;;;;;;;;4993344;28;20042;-65
2024/01/09 06:29:17;;;;;;;9.88;4.32;;;;;;;;;;4993678;28;20396;-65
2024/01/09 06:31:45;;;;;;;11.23;6.20;;;;;;;;;;4993650;28;20113;-65
2024/01/09 06:34:12;;;;;;;6.93;3.88;;;;;;;;;;4993619;28;20535;-65
2024/01/09 06:36:40;;;;;;;10.88;4.47;;;;;;;;;;4993530;28;20038;-65
2024/01/09 06:39:08;;;;;;;12.40;4.90;;;;;;;;;;4993707;28;20404;-65
2024/01/09 06:41:37;;;;;;;15.23;7.80;;;;;;;;;;4993540;28;20469;-66
2024/01/09 06:44:05;;;;;;;12.55;7.40;;;;;;;;;;4993558;28;20120;-65
2024/01/09 06:46:32;;;;;;;12.88;7.40;;;;;;;;;;4993356;28;20507;-65
2024/01/09 06:49:00;;;;;;;9.35;6.28;;;;;;;;;;4993370;28;20120;-65
2024/01/09 06:51:29;;;;;;;7.82;4.75;;;;;;;;;;4993409;28;20524;-65
2024/01/09 06:53:57;;;;;;;12.50;5.75;;;;;;;;;;4993230;28;20046;-65
2024/01/09 06:56:24;;;;;;;10.70;6.28;;;;;;;;;;4993207;28;20053;-65
2024/01/09 06:58:52;;;;;;;9.90;5.25;;;;;;;;;;4993035;28;20085;-65
2024/01/09 07:01:20;;;;;;;8.93;5.53;;;;;;;;;;4993099;28;20035;-65
2024/01/09 07:03:48;;;;;;;13.25;5.57;;;;;;;;;;4959609;28;20042;-65
2024/01/09 07:06:16;;;;;;;7.97;4.55;;;;;;;;;;4992604;28;20062;-65
2024/01/09 07:08:44;;;;;;;9.88;5.38;;;;;;;;;;4992017;28;20305;-65
2024/01/09 07:11:11;;;;;;;9.95;5.30;;;;;;;;;;4992427;28;20049;-65
2024/01/09 07:13:39;;;;;;;7.53;4.00;;;;;;;;;;4992859;28;20034;-65
2024/01/09 07:16:06;;;;;;;9.40;4.47;;;;;;;;;;4992147;28;20035;-65
2024/01/09 07:18:34;;;;;;;9.65;5.75;;;;;;;;;;4992969;28;20046;-65
2024/01/09 07:21:02;;;;;;;13.63;9.30;;;;;;;;;;4992125;28;20053;-66
2024/01/09 07:23:29;;;;;;;9.30;5.05;;;;;;;;;;4992810;28;20051;-65
2024/01/09 07:25:57;;;;;;;15.50;3.90;;;;;;;;;;4993032;28;20046;-65
2024/01/09 07:28:24;;;;;;;11.98;5.72;;;;;;;;;;4975059;28;20416;-65
2024/01/09 07:30:56;;;;;;;13.10;7.13;;;;;;;;;;4992258;28;20046;-65
2024/01/09 07:33:24;;;;;;;13.93;7.22;;;;;;;;;;4992628;28;20047;-65
2024/01/09 07:35:51;;;;;;;12.65;8.75;;;;;;;;;;4992808;28;20432;-65
2024/01/09 07:38:23;;;;;;;9.50;5.05;;;;;;;;;;4995049;28;20046;-65
2024/01/09 07:40:51;;;;;;;12.40;6.75;;;;;;;;;;4996634;28;20050;-65
2024/01/09 07:43:20;;;;;;;9.55;4.93;;;;;;;;;;4996502;28;20042;-65
2024/01/09 07:45:48;;;;;;;13.70;6.55;;;;;;;;;;4996558;28;20554;-65
2024/01/09 07:48:15;;;;;;;8.60;4.60;;;;;;;;;;4996966;28;20039;-65
2024/01/09 07:50:43;;;;;;;8.75;4.28;;;;;;;;;;4979349;28;20042;-65
2024/01/09 07:53:11;;;;;;;11.38;6.00;;;;;;;;;;4996526;28;20049;-65
2024/01/09 07:55:38;;;;;;;14.02;7.22;;;;;;;;;;4996482;28;20046;-65
2024/01/09 07:58:06;;;;;;;13.25;6.70;;;;;;;;;;4996431;28;20074;-65
2024/01/09 08:00:33;;;;;;;10.48;6.10;;;;;;;;;;4996481;28;20046;-65
2024/01/09 08:03:04;;;;;;;10.75;6.55;;;;;;;;;;4979034;28;20054;-65
2024/01/09 08:05:32;;;;;;;15.25;7.72;;;;;;;;;;4996169;28;20057;-65
2024/01/09 08:08:00;;;;;;;16.00;7.25;;;;;;;;;;4996132;28;20050;-65
2024/01/09 08:10:28;;;;;;;8.95;5.18;;;;;;;;;;4996038;28;20120;-65
2024/01/09 08:12:55;;;;;;;15.15;6.13;;;;;;;;;;4996126;28;20049;-65
2024/01/09 08:15:23;;;;;;;14.30;6.95;;;;;;;;;;4996048;28;20035;-65
2024/01/09 08:17:52;;;;;;;14.43;7.07;;;;;;;;;;4995835;28;20129;-65
2024/01/09 08:20:20;;;;;;;18.20;7.18;;;;;;;;;;4995896;28;20121;-65
2024/01/09 08:22:48;;;;;;;14.43;6.55;;;;;;;;;;4995965;28;20054;-65
2024/01/09 08:25:16;;;;;;;33.80;7.13;;;;;;;;;;4996234;28;20461;-65
2024/01/09 08:27:43;;;;;;;16.05;8.73;;;;;;;;;;4995902;28;20043;-65
2024/01/09 08:30:11;;;;;;;15.68;7.68;;;;;;;;;;4995753;28;20050;-65
2024/01/09 08:32:39;;;;;;;14.45;6.80;;;;;;;;;;4995854;28;20213;-65
2024/01/09 08:35:07;;;;;;;11.30;6.70;;;;;;;;;;4995960;28;20073;-65
2024/01/09 08:37:35;;;;;;;15.32;7.07;;;;;;;;;;4962210;28;20270;-65
2024/01/09 08:40:03;;;;;;;18.05;8.75;;;;;;;;;;4995934;28;20050;-65
2024/01/09 08:42:31;;;;;;;16.85;9.02;;;;;;;;;;4995364;28;20093;-65
2024/01/09 08:44:58;;;;;;;16.45;8.10;;;;;;;;;;4978324;28;20070;-65
2024/01/09 08:47:26;;;;;;;23.38;10.75;;;;;;;;;;4995446;28;20050;-65
2024/01/09 08:49:54;;;;;;;18.52;8.85;;;;;;;;;;4995517;28;20045;-65
2024/01/09 08:52:24;;;;;;;20.52;9.30;;;;;;;;;;4995428;28;20150;-65
2024/01/09 08:54:53;;;;;;;17.98;8.40;;;;;;;;;;4995531;28;20484;-65
2024/01/09 08:57:20;;;;;;;8.20;5.03;;;;;;;;;;4995301;28;20440;-65
2024/01/09 08:59:48;;;;;;;11.65;5.80;;;;;;;;;;4977942;28;20055;-65
2024/01/09 09:02:16;;;;;;;14.07;7.25;;;;;;;;;;4995634;28;20039;-65
2024/01/09 09:04:44;;;;;;;14.48;7.03;;;;;;;;;;4995609;28;20050;-65
2024/01/09 09:07:12;;;;;;;10.20;5.00;;;;;;;;;;4995218;28;20042;-65
2024/01/09 09:09:39;;;;;;;13.43;6.85;;;;;;;;;;4995187;28;20074;-65
2024/01/09 09:12:07;;;;;;;10.40;5.35;;;;;;;;;;4995342;28;20449;-65
2024/01/09 09:14:34;;;;;;;10.48;5.50;;;;;;;;;;4995341;28;20042;-65
2024/01/09 09:17:02;;;;;;;9.32;5.00;;;;;;;;;;4995032;28;20481;-65
2024/01/09 09:19:31;;;;;;;8.32;5.03;;;;;;;;;;4995101;28;20137;-65
2024/01/09 09:22:01;;;;;;;12.70;7.18;;;;;;;;;;4994848;28;20045;-65
2024/01/09 09:24:29;;;;;;;11.95;7.18;;;;;;;;;;4994840;28;20042;-65
2024/01/09 09:26:56;;;;;;;8.57;4.82;;;;;;;;;;4994779;28;20042;-65
2024/01/09 09:29:24;;;;;;;12.32;6.15;;;;;;;;;;4994662;28;20519;-65
2024/01/09 09:32:04;;;;;;;8.88;5.68;;;;;;;;;;4994769;28;20039;-64
2024/01/09 09:34:31;;;;;;;8.95;4.93;;;;;;;;;;4994575;28;20525;-64
2024/01/09 09:36:59;;;;;;;11.50;7.00;;;;;;;;;;4994664;28;20120;-64
2024/01/09 09:39:27;;;;;;;13.02;6.50;;;;;;;;;;4994468;28;20046;-64
2024/01/09 09:41:59;;;;;;;8.75;5.32;;;;;;;;;;4994550;28;20045;-64
2024/01/09 09:44:27;;;;;;;16.30;10.38;;;;;;;;;;4994735;28;20042;-63
2024/01/09 09:46:58;;;;;;;13.90;8.00;;;;;;;;;;4994576;28;20117;-64
2024/01/09 09:49:26;;;;;;;9.52;5.35;;;;;;;;;;4994444;28;20476;-65
2024/01/09 09:51:54;;;;;;;14.13;7.75;;;;;;;;;;4994449;28;20505;-65
2024/01/09 09:54:23;;;;;;;14.60;7.35;;;;;;;;;;4994161;28;20046;-65
2024/01/09 09:56:51;;;;;;;11.23;6.40;;;;;;;;;;4994248;28;20050;-64
2024/01/09 09:59:19;;;;;;;15.68;9.48;;;;;;;;;;4994004;28;20069;-65
2024/01/09 10:01:46;;;;;;;13.10;7.72;;;;;;;;;;4993885;28;20118;-64
2024/01/09 10:04:14;;;;;;;7.53;4.43;;;;;;;;;;4994062;28;20039;-65
2024/01/09 10:06:44;;;;;;;19.50;9.48;;;;;;;;;;4994065;28;20402;-65
2024/01/09 10:09:14;;;;;;;17.98;8.90;;;;;;;;;;4993908;28;20504;-65
2024/01/09 10:11:42;;;;;;;19.55;9.23;;;;;;;;;;4993866;28;20484;-65
2024/01/09 10:14:10;;;;;;;16.88;8.43;;;;;;;;;;4976269;28;20046;-64
2024/01/09 10:16:50;;;;;;;15.55;6.65;;;;;;;;;;4993812;28;20053;-65
2024/01/09 10:19:18;;;;;;;18.05;7.13;;;;;;;;;;4993888;28;20042;-65
2024/01/09 10:21:46;;;;;;;15.38;8.70;;;;;;;;;;4993752;28;20089;-64
2024/01/09 10:24:14;;;;;;;17.90;9.40;;;;;;;;;;4993793;28;20050;-64
2024/01/09 10:26:42;;;;;;;16.52;8.32;;;;;;;;;;4993791;28;20476;-66
2024/01/09 10:29:13;;;;;;;15.85;8.07;;;;;;;;;;4993713;28;20042;-65
2024/01/09 10:31:46;;;;;;;18.98;9.80;;;;;;;;;;4993644;28;20049;-65
2024/01/09 10:34:13;;;;;;;9.80;5.95;;;;;;;;;;4993549;28;20051;-65
2024/01/09 10:36:41;;;;;;;21.45;10.13;;;;;;;;;;4993847;28;20057;-65
2024/01/09 10:39:09;;;;;;;13.73;7.35;;;;;;;;;;4993349;28;20073;-65
2024/01/09 10:41:36;;;;;;;14.63;7.03;;;;;;;;;;4993431;28;20031;-65
2024/01/09 10:44:04;;;;;;;15.60;7.82;;;;;;;;;;4993296;28;20569;-65
2024/01/09 10:46:36;;;;;;;22.65;11.23;;;;;;;;;;4993500;28;20042;-65
2024/01/09 10:49:05;;;;;;;23.73;9.90;;;;;;;;;;4993491;28;20038;-65
2024/01/09 10:51:33;;;;;;;22.88;8.70;;;;;;;;;;4993349;28;20473;-65
2024/01/09 10:54:02;;;;;;;20.80;10.82;;;;;;;;;;4993200;28;20052;-65
2024/01/09 10:56:30;;;;;;;24.38;9.55;;;;;;;;;;4993263;28;20083;-64
2024/01/09 10:58:58;;;;;;;15.00;7.35;;;;;;;;;;4993036;28;20101;-64
2024/01/09 11:01:26;;;;;;;21.23;10.10;;;;;;;;;;4993313;28;20049;-64
2024/01/09 11:03:53;;;;;;;15.45;8.13;;;;;;;;;;4993128;28;20050;-65
2024/01/09 11:06:21;;;;;;;17.98;8.52;;;;;;;;;;4975717;28;20046;-64
2024/01/09 11:08:56;;;;;;;16.77;8.75;;;;;;;;;;4993036;28;20042;-64
2024/01/09 11:11:23;;;;;;;19.35;9.52;;;;;;;;;;4993056;28;20404;-64
2024/01/09 11:13:53;;;;;;;14.35;8.63;;;;;;;;;;4996498;28;20065;-64
2024/01/09 11:16:22;;;;;;;17.15;8.85;;;;;;;;;;4996997;28;20085;-64
2024/01/09 11:18:51;;;;;;;10.15;6.00;;;;;;;;;;4997017;28;20042;-64
2024/01/09 11:21:26;;;;;;;25.70;6.45;;;;;;;;;;4997151;28;20066;-64
2024/01/09 11:24:00;;;;;;;9.77;5.57;;;;;;;;;;4997017;28;20092;-65
2024/01/09 11:26:30;;;;;;;17.50;8.03;;;;;;;;;;4979863;28;20081;-65
2024/01/09 11:28:59;;;;;;;10.65;6.25;;;;;;;;;;4996997;28;20049;-64
2024/01/09 11:31:31;;;;;;;11.82;6.15;;;;;;;;;;4997187;28;20109;-65
2024/01/09 11:34:01;;;;;;;12.38;6.25;;;;;;;;;;4996855;28;20051;-66
2024/01/09 11:36:30;;;;;;;14.73;6.45;;;;;;;;;;4979537;28;20085;-65
2024/01/09 11:38:59;;;;;;;17.77;6.68;;;;;;;;;;4996867;28;20042;-64
2024/01/09 11:41:31;;;;;;;13.13;5.88;;;;;;;;;;4979850;28;20050;-64
2024/01/09 11:44:02;;;;;;;12.10;6.13;;;;;;;;;;4997287;28;20046;-64
2024/01/09 11:46:34;;;;;;;13.25;6.78;;;;;;;;;;4979600;28;20419;-64
2024/01/09 11:49:02;;;;;;;17.10;7.65;;;;;;;;;;4996545;28;20046;-64
2024/01/09 11:51:31;;;;;;;13.57;7.10;;;;;;;;;;4996680;28;20101;-65
2024/01/09 11:53:59;;;;;;;10.55;6.05;;;;;;;;;;4996570;28;20046;-65
2024/01/09 11:56:27;;;;;;;17.40;7.68;;;;;;;;;;4996628;28;20102;-65
2024/01/09 11:58:55;;;;;;;13.35;6.07;;;;;;;;;;4996375;28;20089;-65
2024/01/09 12:01:23;;;;;;;13.80;6.55;;;;;;;;;;4996569;28;20388;-65
2024/01/09 12:03:55;;;;;;;14.65;8.15;;;;;;;;;;4996322;28;20046;-65
2024/01/09 12:06:23;;;;;;;12.27;5.63;;;;;;;;;;4996234;28;20488;-65
2024/01/09 12:08:52;;;;;;;13.95;6.88;;;;;;;;;;4962955;28;20129;-65
2024/01/09 12:11:20;;;;;;;12.00;6.20;;;;;;;;;;4996174;28;20101;-65
2024/01/09 12:13:48;;;;;;;13.85;6.63;;;;;;;;;;4995979;28;20046;-65
2024/01/09 12:16:16;;;;;;;14.95;7.13;;;;;;;;;;4995813;28;20113;-65
2024/01/09 12:18:56;;;;;;;15.27;7.40;;;;;;;;;;4996000;28;20034;-65
2024/01/09 12:21:30;;;;;;;15.18;7.13;;;;;;;;;;4996328;28;20408;-65
2024/01/09 12:24:05;;;;;;;13.20;6.38;;;;;;;;;;4995609;28;20120;-66
2024/01/09 12:26:35;;;;;;;14.27;7.45;;;;;;;;;;4995853;28;20034;-65
2024/01/09 12:29:04;;;;;;;13.02;6.93;;;;;;;;;;4996129;28;20035;-65
2024/01/09 12:31:36;;;;;;;14.15;7.00;;;;;;;;;;4995845;28;20049;-65
2024/01/09 12:34:04;;;;;;;19.05;9.27;;;;;;;;;;4996045;28;20093;-65
2024/01/09 12:36:32;;;;;;;11.75;6.82;;;;;;;;;;4996015;28;20038;-65
2024/01/09 12:38:59;;;;;;;16.85;8.55;;;;;;;;;;4995444;28;20061;-65
2024/01/09 12:41:29;;;;;;;17.27;7.18;;;;;;;;;;4995841;28;20035;-65
2024/01/09 12:44:08;;;;;;;18.45;7.80;;;;;;;;;;4995661;28;20038;-65
2024/01/09 12:46:35;;;;;;;14.02;7.15;;;;;;;;;;4995755;28;20073;-65
2024/01/09 12:49:03;;;;;;;15.75;8.15;;;;;;;;;;4995490;28;20117;-65
2024/01/09 12:51:32;;;;;;;17.25;9.02;;;;;;;;;;4995473;28;20385;-65
2024/01/09 12:54:00;;;;;;;14.75;8.77;;;;;;;;;;4978517;28;20046;-65
2024/01/09 12:56:28;;;;;;;19.77;9.90;;;;;;;;;;4995337;28;20092;-65
2024/01/09 12:58:56;;;;;;;18.27;9.50;;;;;;;;;;4978360;28;20279;-65
2024/01/09 13:01:26;;;;;;;20.23;10.20;;;;;;;;;;4995156;28;20042;-65
2024/01/09 13:03:58;;;;;;;15.05;8.15;;;;;;;;;;4995204;28;20465;-65
2024/01/09 13:06:25;;;;;;;15.93;8.00;;;;;;;;;;4995085;28;20042;-65
2024/01/09 13:08:53;;;;;;;14.88;7.68;;;;;;;;;;4995036;28;20508;-65
2024/01/09 13:11:21;;;;;;;15.70;7.97;;;;;;;;;;4995491;28;20101;-65
2024/01/09 13:13:49;;;;;;;15.88;9.23;;;;;;;;;;4995157;28;20043;-65
2024/01/09 13:16:18;;;;;;;16.42;8.18;;;;;;;;;;4994907;28;20048;-65
2024/01/09 13:18:45;;;;;;;14.55;6.97;;;;;;;;;;4995054;28;20038;-65
2024/01/09 13:21:13;;;;;;;12.88;6.97;;;;;;;;;;4995162;28;20073;-65
2024/01/09 13:23:41;;;;;;;21.45;7.68;;;;;;;;;;4994919;28;20051;-65
2024/01/09 13:26:18;;;;;;;17.13;8.27;;;;;;;;;;4994811;28;20046;-65
2024/01/09 13:28:46;;;;;;;22.48;9.43;;;;;;;;;;4977218;28;20046;-65
2024/01/09 13:31:34;;;;;;;18.48;9.80;;;;;;;;;;4994737;28;20104;-65
2024/01/09 13:34:02;;;;;;;17.35;8.80;;;;;;;;;;4994529;28;20053;-64
2024/01/09 13:36:31;;;;;;;14.10;7.65;;;;;;;;;;4994012;28;20047;-65
2024/01/09 13:38:58;;;;;;;15.32;7.63;;;;;;;;;;4994384;28;20042;-65
2024/01/09 13:41:26;;;;;;;16.17;8.10;;;;;;;;;;4994467;28;20052;-65
2024/01/09 13:43:56;;;;;;;17.65;8.07;;;;;;;;;;4994457;28;20042;-65
2024/01/09 13:46:23;;;;;;;15.50;8.45;;;;;;;;;;4994512;28;20138;-65
2024/01/09 13:48:52;;;;;;;18.23;8.93;;;;;;;;;;4995375;28;20069;-65
2024/01/09 13:51:21;;;;;;;15.88;8.77;;;;;;;;;;4994376;28;20041;-65
2024/01/09 13:53:52;;;;;;;19.40;8.95;;;;;;;;;;4994171;28;20054;-65
2024/01/09 13:56:20;;;;;;;15.52;8.98;;;;;;;;;;4994540;28;20555;-65
2024/01/09 13:58:48;;;;;;;33.47;16.80;;;;;;;;;;4993926;28;20045;-65
2024/01/09 14:01:15;;;;;;;27.38;12.52;;;;;;;;;;4994267;28;20596;-65
2024/01/09 14:03:55;;;;;;;17.80;8.93;;;;;;;;;;4994114;28;20497;-65
2024/01/09 14:06:25;;;;;;;16.05;8.65;;;;;;;;;;4994016;28;20500;-65
2024/01/09 14:08:52;;;;;;;16.63;8.93;;;;;;;;;;4993900;28;20519;-65
2024/01/09 14:11:20;;;;;;;19.35;9.75;;;;;;;;;;4993988;28;20043;-65
2024/01/09 14:13:48;;;;;;;15.07;9.00;;;;;;;;;;4993834;28;20042;-65
2024/01/09 14:16:15;;;;;;;20.10;10.40;;;;;;;;;;4993632;28;20038;-65
2024/01/09 14:18:44;;;;;;;19.63;9.95;;;;;;;;;;4993463;28;20050;-65
2024/01/09 14:21:13;;;;;;;17.30;10.35;;;;;;;;;;4993591;28;20590;-65
2024/01/09 14:23:40;;;;;;;22.17;11.57;;;;;;;;;;4993552;28;20110;-65
2024/01/09 14:26:10;;;;;;;19.55;10.52;;;;;;;;;;4976907;28;20126;-65
2024/01/09 14:28:41;;;;;;;20.83;10.55;;;;;;;;;;4976695;28;20042;-65
2024/01/09 14:31:09;;;;;;;18.73;10.30;;;;;;;;;;4976440;28;20432;-65
2024/01/09 14:33:37;;;;;;;21.00;10.82;;;;;;;;;;4992942;28;20035;-65
2024/01/09 14:36:05;;;;;;;23.08;11.05;;;;;;;;;;4993095;28;20049;-65
2024/01/09 14:38:33;;;;;;;17.88;10.30;;;;;;;;;;4993447;28;20101;-65
2024/01/09 14:41:00;;;;;;;23.63;11.00;;;;;;;;;;4993196;28;20042;-65